Time;durP1;ratioP1;P1;durP2;ratioP2;P2;SDS_P1;SDS_P2;PMS_P1;PMS_P2;Temp;Humidity;BMP_temperature;BMP_pressure;BME280_temperature;BME280_humidity;BME280_pressure;Samples;Min_cycle;Max_cycle;Signal;HPM_P1;HPM_P2
2021/04/29 00:00:09;;;;;;;9.63;6.82;;;10.60;60.60;;;;;;5057138;28;20056;-82
2021/04/29 00:02:39;;;;;;;11.48;7.53;;;10.60;60.70;;;;;;5076244;28;20036;-81
2021/04/29 00:05:12;;;;;;;11.55;7.13;;;10.50;61.00;;;;;;5056492;28;20043;-81
2021/04/29 00:07:38;;;;;;;14.32;7.72;;;10.50;61.20;;;;;;5078606;28;20043;-81
2021/04/29 00:10:07;;;;;;;15.07;7.38;;;10.50;61.50;;;;;;5063510;28;20352;-82
2021/04/29 00:12:34;;;;;;;10.48;6.80;;;10.50;61.60;;;;;;5059355;28;20039;-82
2021/04/29 00:15:00;;;;;;;10.70;6.68;;;10.40;61.50;;;;;;5056178;28;20044;-82
2021/04/29 00:17:27;;;;;;;13.25;7.30;;;10.50;61.70;;;;;;5043660;28;20518;-81
2021/04/29 00:19:53;;;;;;;15.98;7.65;;;10.50;62.00;;;;;;5031280;28;20047;-82
2021/04/29 00:22:20;;;;;;;10.77;7.57;;;10.40;62.20;;;;;;5042133;28;20036;-82
2021/04/29 00:24:46;;;;;;;16.35;8.45;;;10.40;62.30;;;;;;5030177;28;20037;-81
2021/04/29 00:27:13;;;;;;;13.40;6.80;;;10.40;62.40;;;;;;5058731;28;20044;-82
2021/04/29 00:29:40;;;;;;;15.10;8.40;;;10.30;62.50;;;;;;5034551;28;20039;-82
2021/04/29 00:32:06;;;;;;;10.65;7.20;;;10.30;63.00;;;;;;5026008;28;20047;-82
2021/04/29 00:34:33;;;;;;;12.63;6.93;;;10.20;63.10;;;;;;5062680;28;20048;-82
2021/04/29 00:36:59;;;;;;;11.57;7.07;;;10.20;63.40;;;;;;5059097;28;20055;-81
2021/04/29 00:39:26;;;;;;;12.10;7.85;;;10.10;63.50;;;;;;5062984;28;20867;-82
2021/04/29 00:41:52;;;;;;;13.27;8.18;;;10.10;64.20;;;;;;5059232;28;20040;-82
2021/04/29 00:44:19;;;;;;;15.13;8.60;;;10.00;64.40;;;;;;5047128;28;20055;-80
2021/04/29 00:46:45;;;;;;;14.43;8.40;;;10.00;64.90;;;;;;5051807;28;20059;-81
2021/04/29 00:49:15;;;;;;;13.50;8.77;;;10.00;65.50;;;;;;5053091;28;20056;-81
2021/04/29 00:51:42;;;;;;;15.93;9.70;;;10.00;65.50;;;;;;5024199;28;20051;-81
2021/04/29 00:54:08;;;;;;;11.07;8.23;;;10.00;65.70;;;;;;5055474;28;20071;-80
2021/04/29 00:56:36;;;;;;;12.20;7.43;;;10.00;65.80;;;;;;5060343;28;20048;-81
2021/04/29 00:59:03;;;;;;;12.27;7.70;;;10.00;65.90;;;;;;5057499;28;20037;-81
2021/04/29 01:01:30;;;;;;;16.33;9.90;;;10.00;66.20;;;;;;5077525;28;20040;-81
2021/04/29 01:04:11;;;;;;;12.80;8.38;;;10.00;66.60;;;;;;5076336;28;20047;-81
2021/04/29 01:06:45;;;;;;;13.13;8.00;;;9.90;66.80;;;;;;5057352;28;20047;-81
2021/04/29 01:09:27;;;;;;;14.32;10.25;;;9.90;66.80;;;;;;5076996;28;20051;-81
2021/04/29 01:12:04;;;;;;;13.60;9.13;;;9.90;67.60;;;;;;5074954;28;20086;-81
2021/04/29 01:14:31;;;;;;;15.60;9.30;;;9.80;67.60;;;;;;5041206;28;20506;-81
2021/04/29 01:16:58;;;;;;;20.02;10.32;;;9.80;68.00;;;;;;5063220;28;20044;-82
2021/04/29 01:19:39;;;;;;;12.18;8.65;;;9.70;68.40;;;;;;5046849;28;20517;-81
2021/04/29 01:22:07;;;;;;;10.55;7.60;;;9.70;68.50;;;;;;5095661;28;20040;-82
2021/04/29 01:24:46;;;;;;;14.18;8.68;;;9.60;68.70;;;;;;5059581;28;20036;-81
2021/04/29 01:27:14;;;;;;;14.07;8.50;;;9.60;69.20;;;;;;5073342;28;20040;-81
2021/04/29 01:29:42;;;;;;;14.82;7.57;;;9.50;69.30;;;;;;5057627;28;20044;-82
2021/04/29 01:32:10;;;;;;;17.67;10.57;;;9.50;69.40;;;;;;5038141;28;20044;-81
2021/04/29 01:34:38;;;;;;;14.57;9.67;;;9.40;70.20;;;;;;5051657;28;20053;-82
2021/04/29 01:37:05;;;;;;;12.93;8.43;;;9.40;70.50;;;;;;5074876;28;20067;-82
2021/04/29 01:39:33;;;;;;;11.05;8.05;;;9.30;70.40;;;;;;5079369;28;20056;-82
2021/04/29 01:42:00;;;;;;;10.10;7.43;;;9.30;70.70;;;;;;5038660;28;20045;-82
2021/04/29 01:44:28;;;;;;;11.65;8.85;;;9.20;71.40;;;;;;5033649;28;20047;-82
2021/04/29 01:46:57;;;;;;;15.05;10.38;;;9.20;71.20;;;;;;5059173;28;20052;-82
2021/04/29 01:49:24;;;;;;;12.95;9.10;;;9.20;72.00;;;;;;5017630;28;20041;-82
2021/04/29 01:51:52;;;;;;;14.70;9.48;;;9.20;72.40;;;;;;5034697;28;20595;-82
2021/04/29 01:54:21;;;;;;;14.55;7.50;;;9.10;72.40;;;;;;5016152;28;20415;-82
2021/04/29 01:56:48;;;;;;;17.08;10.10;;;9.20;72.40;;;;;;5044024;28;20491;-81
2021/04/29 01:59:23;;;;;;;12.20;7.40;;;9.20;72.50;;;;;;5028051;28;20602;-82
2021/04/29 02:01:50;;;;;;;10.23;7.63;;;9.20;72.50;;;;;;5029960;28;20040;-81
2021/04/29 02:04:17;;;;;;;13.07;8.20;;;9.10;72.50;;;;;;5041815;28;20032;-82
2021/04/29 02:06:45;;;;;;;10.87;8.27;;;9.10;73.10;;;;;;5041284;28;20044;-81
2021/04/29 02:09:12;;;;;;;13.50;9.67;;;9.10;73.20;;;;;;5043636;28;20044;-82
2021/04/29 02:11:53;;;;;;;14.60;10.60;;;9.10;73.40;;;;;;5023889;28;20048;-81
2021/04/29 02:14:38;;;;;;;14.23;11.05;;;9.10;74.60;;;;;;5043852;28;20499;-82
2021/04/29 02:17:13;;;;;;;12.77;9.10;;;9.10;74.70;;;;;;5056821;28;20045;-81
2021/04/29 02:19:42;;;;;;;10.40;8.00;;;9.10;74.70;;;;;;5049726;28;20522;-82
2021/04/29 02:22:13;;;;;;;14.02;11.00;;;9.10;74.60;;;;;;5025091;28;20060;-82
2021/04/29 02:24:39;;;;;;;13.52;8.77;;;9.10;74.80;;;;;;5024601;28;20139;-82
2021/04/29 02:27:09;;;;;;;11.75;9.43;;;9.10;74.70;;;;;;5027679;28;20511;-82
2021/04/29 02:29:36;;;;;;;11.20;7.18;;;9.10;75.00;;;;;;5054146;28;20041;-82
2021/04/29 02:32:05;;;;;;;14.00;9.73;;;9.10;74.70;;;;;;5039915;28;20400;-82
2021/04/29 02:34:31;;;;;;;14.43;9.73;;;9.20;75.30;;;;;;4997404;28;20505;-82
2021/04/29 02:36:58;;;;;;;11.25;8.25;;;9.20;75.40;;;;;;5018288;28;20053;-82
2021/04/29 02:39:25;;;;;;;12.37;9.50;;;9.20;75.20;;;;;;5054642;28;20036;-82
2021/04/29 02:41:56;;;;;;;17.60;10.70;;;9.20;75.70;;;;;;5078970;28;20052;-82
2021/04/29 02:44:23;;;;;;;22.13;10.63;;;9.20;76.20;;;;;;5065146;28;20036;-83
2021/04/29 02:46:50;;;;;;;10.27;8.10;;;9.20;76.00;;;;;;5030071;28;20051;-81
2021/04/29 02:49:17;;;;;;;10.85;8.27;;;9.20;75.70;;;;;;5061362;28;20541;-81
2021/04/29 02:51:43;;;;;;;12.07;8.30;;;9.30;75.60;;;;;;5078303;28;20054;-81
2021/04/29 02:54:17;;;;;;;15.05;10.43;;;9.20;75.40;;;;;;5032041;28;20037;-81
2021/04/29 02:56:44;;;;;;;13.32;9.48;;;9.30;75.40;;;;;;5057285;28;20036;-81
2021/04/29 02:59:12;;;;;;;14.77;10.30;;;9.30;75.40;;;;;;5042934;28;20048;-82
2021/04/29 03:01:41;;;;;;;11.75;8.63;;;9.20;75.30;;;;;;5078914;28;20043;-81
2021/04/29 03:04:08;;;;;;;12.18;8.68;;;9.30;75.40;;;;;;5061585;28;20048;-81
2021/04/29 03:06:35;;;;;;;13.45;9.18;;;9.30;75.70;;;;;;5058102;28;20410;-81
2021/04/29 03:09:04;;;;;;;13.85;10.32;;;9.30;75.70;;;;;;5081721;28;20067;-81
2021/04/29 03:11:34;;;;;;;16.90;12.02;;;9.30;76.30;;;;;;5050862;28;20923;-81
2021/04/29 03:14:02;;;;;;;11.87;9.47;;;9.30;77.00;;;;;;5061341;28;20041;-82
2021/04/29 03:16:29;;;;;;;13.97;9.67;;;9.30;76.90;;;;;;5035386;28;20059;-81
2021/04/29 03:18:56;;;;;;;13.23;9.30;;;9.20;76.80;;;;;;5057187;28;20569;-81
2021/04/29 03:21:22;;;;;;;12.80;9.63;;;9.20;77.20;;;;;;5059201;28;20043;-82
2021/04/29 03:23:49;;;;;;;12.40;9.55;;;9.20;77.20;;;;;;5017978;28;20040;-81
2021/04/29 03:26:17;;;;;;;15.45;10.43;;;9.20;77.50;;;;;;5039483;28;20036;-81
2021/04/29 03:28:43;;;;;;;10.15;8.77;;;9.20;77.30;;;;;;5045466;28;20036;-81
2021/04/29 03:31:10;;;;;;;11.48;9.50;;;9.20;77.40;;;;;;5044711;28;20044;-81
2021/04/29 03:33:49;;;;;;;12.73;8.30;;;9.30;77.40;;;;;;5044322;28;20045;-81
2021/04/29 03:36:16;;;;;;;13.32;9.10;;;9.40;77.30;;;;;;5043817;28;20043;-82
2021/04/29 03:38:52;;;;;;;12.38;7.95;;;9.30;77.20;;;;;;5062169;28;20055;-82
2021/04/29 03:41:20;;;;;;;13.18;7.38;;;9.30;77.10;;;;;;5058458;28;20048;-82
2021/04/29 03:43:46;;;;;;;10.43;7.90;;;9.40;77.10;;;;;;5058879;28;20075;-81
2021/04/29 03:46:13;;;;;;;12.87;9.27;;;9.40;77.10;;;;;;5059787;28;20032;-81
2021/04/29 03:48:39;;;;;;;13.13;9.50;;;9.30;77.10;;;;;;5062889;28;20028;-82
2021/04/29 03:51:06;;;;;;;13.85;9.27;;;9.30;77.20;;;;;;5027384;28;20067;-82
2021/04/29 03:53:33;;;;;;;13.37;9.53;;;9.30;77.40;;;;;;5034275;28;20032;-81
2021/04/29 03:56:00;;;;;;;13.57;8.33;;;9.40;77.40;;;;;;5043343;28;20036;-81
2021/04/29 03:58:26;;;;;;;12.02;8.65;;;9.40;77.30;;;;;;5040441;28;20036;-82
2021/04/29 04:00:53;;;;;;;11.05;8.80;;;9.40;77.10;;;;;;5016961;28;20037;-81
2021/04/29 04:03:21;;;;;;;12.88;7.93;;;9.40;77.10;;;;;;5062030;28;20043;-81
2021/04/29 04:05:47;;;;;;;10.63;8.27;;;9.50;77.00;;;;;;5039797;28;20047;-81
2021/04/29 04:08:14;;;;;;;11.13;8.30;;;9.50;76.90;;;;;;5038836;28;20048;-81
2021/04/29 04:10:56;;;;;;;9.95;7.07;;;9.50;76.80;;;;;;5032605;28;20525;-81
2021/04/29 04:13:22;;;;;;;13.40;8.20;;;9.40;76.70;;;;;;5062032;28;20039;-82
2021/04/29 04:15:50;;;;;;;14.90;8.43;;;9.50;76.80;;;;;;5073546;28;20051;-81
2021/04/29 04:18:17;;;;;;;12.05;9.80;;;9.50;76.90;;;;;;5043011;28;20138;-81
2021/04/29 04:20:45;;;;;;;16.02;10.75;;;9.50;77.10;;;;;;5040396;28;20503;-81
2021/04/29 04:23:11;;;;;;;10.32;8.70;;;9.40;77.40;;;;;;5052922;28;20454;-82
2021/04/29 04:25:38;;;;;;;13.70;9.98;;;9.40;77.60;;;;;;5054169;28;20037;-82
2021/04/29 04:28:04;;;;;;;13.18;9.35;;;9.40;77.90;;;;;;5054798;28;21422;-81
2021/04/29 04:30:31;;;;;;;9.75;7.43;;;9.40;78.20;;;;;;5043821;28;20051;-82
2021/04/29 04:32:57;;;;;;;18.48;13.13;;;9.40;78.40;;;;;;5046869;28;20048;-82
2021/04/29 04:35:24;;;;;;;15.75;10.38;;;9.30;79.20;;;;;;5054885;28;20040;-82
2021/04/29 04:37:50;;;;;;;13.52;10.30;;;9.10;80.50;;;;;;5040512;28;20040;-82
2021/04/29 04:40:18;;;;;;;13.80;10.07;;;9.00;81.60;;;;;;5031560;28;21395;-81
2021/04/29 04:42:44;;;;;;;13.55;8.90;;;8.80;82.90;;;;;;5055828;28;20044;-82
2021/04/29 04:45:11;;;;;;;14.90;9.27;;;8.70;84.30;;;;;;5042490;28;20036;-81
2021/04/29 04:47:39;;;;;;;16.87;11.17;;;8.50;86.20;;;;;;5052169;28;20037;-80
2021/04/29 04:50:07;;;;;;;14.65;11.50;;;8.20;87.50;;;;;;5043180;28;20039;-80
2021/04/29 04:52:33;;;;;;;17.30;11.52;;;8.00;89.20;;;;;;5070353;28;20055;-81
2021/04/29 04:55:00;;;;;;;16.20;11.20;;;7.80;90.20;;;;;;5073194;28;20051;-80
2021/04/29 04:57:26;;;;;;;13.97;11.30;;;7.70;90.80;;;;;;5037097;28;20036;-80
2021/04/29 04:59:53;;;;;;;18.85;14.50;;;7.60;91.30;;;;;;5072014;28;20596;-80
2021/04/29 05:02:20;;;;;;;15.47;11.40;;;7.50;91.70;;;;;;5041416;28;20092;-80
2021/04/29 05:04:46;;;;;;;17.23;12.50;;;7.50;92.10;;;;;;5051319;28;20052;-80
2021/04/29 05:07:13;;;;;;;16.90;11.67;;;7.60;92.30;;;;;;5075945;28;20056;-80
2021/04/29 05:09:42;;;;;;;16.87;13.50;;;7.60;92.60;;;;;;5075933;28;20064;-80
2021/04/29 05:12:12;;;;;;;19.17;14.13;;;7.70;92.70;;;;;;5073017;28;20044;-80
2021/04/29 05:14:39;;;;;;;17.83;13.37;;;7.80;93.00;;;;;;5074299;28;20044;-79
2021/04/29 05:17:05;;;;;;;16.57;13.50;;;7.80;93.10;;;;;;5037931;28;20063;-80
2021/04/29 05:19:32;;;;;;;20.00;14.93;;;7.80;93.30;;;;;;5079014;28;20040;-80
2021/04/29 05:21:58;;;;;;;24.10;16.70;;;7.90;93.40;;;;;;5080095;28;20406;-80
2021/04/29 05:24:25;;;;;;;18.93;15.40;;;7.90;93.70;;;;;;5079481;28;20509;-80
2021/04/29 05:26:52;;;;;;;17.87;14.37;;;7.90;93.90;;;;;;5074239;28;20052;-80
2021/04/29 05:29:19;;;;;;;23.07;16.80;;;8.00;94.30;;;;;;5027434;28;20040;-79
2021/04/29 05:31:45;;;;;;;22.20;17.97;;;8.00;94.10;;;;;;5044300;28;20048;-80
2021/04/29 05:34:12;;;;;;;21.80;17.37;;;8.00;94.30;;;;;;5030498;28;20055;-79
2021/04/29 05:36:38;;;;;;;24.40;17.70;;;8.00;94.50;;;;;;5061339;28;20044;-80
2021/04/29 05:39:05;;;;;;;24.30;18.27;;;8.10;94.60;;;;;;5072786;28;20036;-80
2021/04/29 05:41:32;;;;;;;24.92;19.58;;;8.10;94.70;;;;;;5067346;28;20056;-80
2021/04/29 05:43:58;;;;;;;23.05;17.38;;;8.20;94.90;;;;;;5062517;28;20063;-80
2021/04/29 05:46:25;;;;;;;22.23;17.23;;;8.30;95.00;;;;;;5078410;28;20045;-80
2021/04/29 05:48:51;;;;;;;26.50;19.07;;;8.30;95.00;;;;;;5063831;28;20036;-80
2021/04/29 05:51:18;;;;;;;24.97;19.40;;;8.30;95.30;;;;;;5060822;28;20040;-79
2021/04/29 05:53:45;;;;;;;29.90;22.13;;;8.30;95.20;;;;;;5044764;28;20577;-80
2021/04/29 05:56:15;;;;;;;29.77;21.77;;;8.40;95.30;;;;;;5077431;28;20039;-80
2021/04/29 05:58:42;;;;;;;25.23;20.67;;;8.50;95.30;;;;;;5062397;28;20035;-79
2021/04/29 06:01:11;;;;;;;26.37;20.43;;;8.60;95.40;;;;;;5041368;28;20045;-80
2021/04/29 06:03:38;;;;;;;25.05;21.08;;;8.70;95.40;;;;;;5045902;28;20036;-80
2021/04/29 06:06:05;;;;;;;25.87;20.97;;;8.70;95.40;;;;;;5079323;28;20035;-81
2021/04/29 06:08:32;;;;;;;29.27;23.90;;;8.80;95.50;;;;;;5059017;28;20049;-80
2021/04/29 06:10:58;;;;;;;28.73;23.50;;;8.80;95.50;;;;;;5078571;28;20055;-80
2021/04/29 06:13:25;;;;;;;34.53;27.17;;;8.80;95.50;;;;;;5078525;28;20036;-79
2021/04/29 06:15:51;;;;;;;32.85;26.05;;;8.80;95.50;;;;;;5076361;28;20406;-80
2021/04/29 06:18:18;;;;;;;28.30;21.65;;;8.80;95.60;;;;;;5057564;28;20040;-79
2021/04/29 06:20:44;;;;;;;27.25;21.23;;;8.80;95.60;;;;;;5061923;28;20047;-80
2021/04/29 06:23:11;;;;;;;32.35;24.40;;;8.70;95.70;;;;;;5065158;28;20386;-80
2021/04/29 06:25:37;;;;;;;29.23;23.97;;;8.70;95.80;;;;;;5077730;28;20407;-79
2021/04/29 06:28:04;;;;;;;29.65;23.35;;;8.70;95.80;;;;;;5027177;28;20090;-78
2021/04/29 06:30:30;;;;;;;38.00;26.13;;;8.70;95.90;;;;;;5079602;28;20431;-80
2021/04/29 06:32:56;;;;;;;31.80;24.33;;;8.80;95.90;;;;;;5051819;28;20071;-80
2021/04/29 06:35:23;;;;;;;30.83;23.92;;;8.70;95.90;;;;;;5059977;28;20363;-79
2021/04/29 06:37:49;;;;;;;29.27;23.60;;;8.70;96.00;;;;;;5075697;28;20204;-79
2021/04/29 06:40:16;;;;;;;31.63;23.17;;;8.70;96.10;;;;;;5074619;28;20057;-79
2021/04/29 06:42:42;;;;;;;23.50;19.00;;;8.80;96.10;;;;;;5074411;28;20036;-79
2021/04/29 06:45:10;;;;;;;27.05;21.33;;;8.80;96.10;;;;;;5067853;28;20452;-79
2021/04/29 06:47:36;;;;;;;32.20;23.67;;;8.90;96.20;;;;;;5026180;28;20052;-79
2021/04/29 06:50:03;;;;;;;29.90;23.25;;;8.90;96.10;;;;;;5079500;28;20107;-79
2021/04/29 06:52:29;;;;;;;32.57;24.43;;;9.00;96.10;;;;;;5059729;28;20498;-78
2021/04/29 06:54:56;;;;;;;25.95;21.58;;;9.00;96.10;;;;;;5074022;28;20041;-78
2021/04/29 06:57:23;;;;;;;26.55;21.95;;;9.10;96.10;;;;;;5080463;28;20035;-79
2021/04/29 06:59:50;;;;;;;27.55;23.70;;;9.20;96.50;;;;;;5073419;28;20051;-79
2021/04/29 07:02:17;;;;;;;28.33;22.60;;;9.30;96.20;;;;;;5075930;28;20047;-78
2021/04/29 07:04:43;;;;;;;34.17;23.35;;;9.40;96.20;;;;;;5072494;28;20036;-77
2021/04/29 07:07:10;;;;;;;29.63;19.90;;;9.40;96.10;;;;;;5063294;28;20036;-77
2021/04/29 07:09:36;;;;;;;27.65;21.73;;;9.40;96.00;;;;;;5075770;28;20059;-77
2021/04/29 07:12:03;;;;;;;25.80;21.52;;;9.50;96.10;;;;;;5047451;28;20045;-77
2021/04/29 07:14:30;;;;;;;23.45;19.92;;;9.50;96.10;;;;;;5070749;28;20040;-78
2021/04/29 07:16:56;;;;;;;24.30;20.95;;;9.50;96.10;;;;;;5041309;28;20040;-78
2021/04/29 07:19:23;;;;;;;23.02;19.13;;;9.60;96.20;;;;;;5027044;28;20055;-77
2021/04/29 07:21:49;;;;;;;28.67;21.75;;;9.60;96.20;;;;;;5080637;28;20052;-77
2021/04/29 07:24:16;;;;;;;28.88;23.88;;;9.70;96.20;;;;;;5074934;28;20035;-78
2021/04/29 07:26:42;;;;;;;22.85;18.17;;;9.80;96.10;;;;;;5069023;28;20509;-77
2021/04/29 07:29:09;;;;;;;28.02;20.65;;;9.80;96.10;;;;;;5043706;28;20044;-77
2021/04/29 07:31:35;;;;;;;26.73;20.25;;;9.90;96.10;;;;;;5078007;28;20035;-78
2021/04/29 07:34:02;;;;;;;25.75;21.83;;;10.00;96.00;;;;;;5080577;28;20063;-77
2021/04/29 07:36:28;;;;;;;26.17;19.90;;;10.00;96.00;;;;;;5073640;28;20048;-76
2021/04/29 07:38:55;;;;;;;28.17;23.25;;;10.10;96.00;;;;;;5075162;28;20055;-77
2021/04/29 07:41:25;;;;;;;27.70;22.90;;;10.20;96.00;;;;;;5057719;28;20052;-76
2021/04/29 07:43:52;;;;;;;23.80;20.73;;;10.20;95.90;;;;;;5078361;28;20036;-77
2021/04/29 07:46:18;;;;;;;24.20;20.30;;;10.20;95.90;;;;;;5075818;28;20063;-77
2021/04/29 07:48:45;;;;;;;28.02;23.67;;;10.30;95.80;;;;;;5076738;28;20044;-76
2021/04/29 07:51:11;;;;;;;28.55;23.20;;;10.30;95.50;;;;;;5082094;28;20040;-76
2021/04/29 07:53:38;;;;;;;25.33;20.90;;;10.20;95.40;;;;;;5062636;28;20044;-77
2021/04/29 07:56:04;;;;;;;25.42;20.45;;;10.20;95.60;;;;;;5072423;28;20398;-77
2021/04/29 07:58:31;;;;;;;28.48;21.25;;;10.20;95.70;;;;;;5057767;28;20056;-77
2021/04/29 08:00:58;;;;;;;24.13;18.88;;;10.20;95.70;;;;;;5079146;28;20511;-78
2021/04/29 08:03:25;;;;;;;22.15;18.92;;;10.20;95.90;;;;;;5073502;28;20035;-78
2021/04/29 08:05:51;;;;;;;25.85;19.60;;;10.20;95.70;;;;;;5063296;28;20051;-78
2021/04/29 08:08:18;;;;;;;24.63;20.38;;;10.30;95.80;;;;;;5028791;28;20036;-78
2021/04/29 08:10:45;;;;;;;24.98;21.08;;;10.30;96.00;;;;;;5077291;28;20480;-77
2021/04/29 08:13:12;;;;;;;27.13;22.40;;;10.40;95.70;;;;;;5078246;28;20036;-78
2021/04/29 08:15:40;;;;;;;26.80;20.80;;;10.40;95.70;;;;;;5073806;28;20028;-77
2021/04/29 08:18:07;;;;;;;24.05;19.95;;;10.50;95.70;;;;;;5058441;28;20041;-79
2021/04/29 08:20:34;;;;;;;21.23;18.20;;;10.50;95.70;;;;;;5043835;28;20028;-77
2021/04/29 08:23:02;;;;;;;20.67;16.90;;;10.60;95.60;;;;;;5075662;28;20055;-78
2021/04/29 08:25:29;;;;;;;22.80;18.63;;;10.60;95.50;;;;;;5071171;28;20033;-78
2021/04/29 08:27:55;;;;;;;20.45;16.60;;;10.60;95.50;;;;;;5040852;28;20047;-77
2021/04/29 08:30:27;;;;;;;22.45;17.60;;;10.50;95.50;;;;;;5063014;28;20032;-77
2021/04/29 08:32:59;;;;;;;18.85;16.40;;;10.50;95.50;;;;;;5078630;28;20087;-78
2021/04/29 08:35:26;;;;;;;20.30;18.00;;;10.50;95.50;;;;;;5058531;28;20047;-78
2021/04/29 08:37:53;;;;;;;23.67;19.70;;;10.50;95.60;;;;;;5055577;28;20534;-77
2021/04/29 08:40:22;;;;;;;28.98;21.27;;;10.60;95.60;;;;;;5074005;28;20055;-78
2021/04/29 08:42:49;;;;;;;25.60;20.08;;;10.60;95.60;;;;;;5078287;28;20043;-78
2021/04/29 08:45:16;;;;;;;24.75;19.20;;;10.60;95.50;;;;;;5075391;28;20040;-78
2021/04/29 08:47:49;;;;;;;20.15;18.00;;;10.60;95.60;;;;;;5075951;28;20032;-78
2021/04/29 08:50:16;;;;;;;21.15;18.10;;;10.60;95.60;;;;;;5077796;28;20048;-78
2021/04/29 08:52:43;;;;;;;24.05;18.70;;;10.70;95.70;;;;;;5076400;28;20048;-78
2021/04/29 08:55:16;;;;;;;20.35;16.67;;;10.80;95.70;;;;;;5073432;28;20577;-77
2021/04/29 08:57:43;;;;;;;23.10;16.55;;;10.90;95.50;;;;;;5074066;28;20028;-79
2021/04/29 09:00:11;;;;;;;19.58;16.85;;;10.90;95.30;;;;;;5074467;28;20064;-78
2021/04/29 09:02:39;;;;;;;19.02;15.40;;;10.90;95.30;;;;;;5039607;28;20037;-78
2021/04/29 09:05:12;;;;;;;21.95;16.27;;;10.90;95.20;;;;;;5058421;28;20569;-77
2021/04/29 09:07:50;;;;;;;15.55;12.30;;;10.90;95.10;;;;;;5073687;28;20378;-78
2021/04/29 09:10:24;;;;;;;21.65;16.92;;;10.90;95.20;;;;;;5077247;28;20045;-76
2021/04/29 09:12:51;;;;;;;21.08;17.17;;;10.90;95.00;;;;;;5074599;28;20072;-77
2021/04/29 09:15:28;;;;;;;23.15;18.42;;;10.80;95.10;;;;;;5078106;28;20051;-78
2021/04/29 09:18:09;;;;;;;19.23;16.50;;;10.80;95.10;;;;;;5074108;28;21040;-77
2021/04/29 09:20:39;;;;;;;19.42;16.40;;;10.80;95.10;;;;;;5060560;28;20387;-77
2021/04/29 09:23:07;;;;;;;17.48;15.07;;;10.80;95.30;;;;;;5077633;28;20090;-77
2021/04/29 09:25:35;;;;;;;21.88;16.95;;;10.90;95.30;;;;;;5074766;28;20031;-81
2021/04/29 09:28:03;;;;;;;18.48;15.70;;;11.00;95.20;;;;;;5057014;28;20055;-82
2021/04/29 09:30:30;;;;;;;19.80;16.13;;;11.00;95.10;;;;;;5076077;28;20047;-82
2021/04/29 09:33:12;;;;;;;20.77;17.08;;;11.00;94.80;;;;;;5073937;28;20055;-83
2021/04/29 09:35:40;;;;;;;20.83;16.08;;;11.00;94.70;;;;;;5060862;28;20059;-81
2021/04/29 09:38:11;;;;;;;21.17;17.75;;;10.90;94.70;;;;;;5072505;28;20049;-81
2021/04/29 09:40:43;;;;;;;19.23;16.00;;;10.90;94.70;;;;;;5077077;28;20486;-83
2021/04/29 09:43:10;;;;;;;;;;;10.90;94.70;;;;;;5057551;28;20036;-83
2021/04/29 09:45:38;;;;;;;19.48;15.27;;;10.80;94.70;;;;;;5072646;28;19924;-82
2021/04/29 09:48:08;;;;;;;21.13;17.13;;;10.70;94.70;;;;;;5069757;28;20402;-84
2021/04/29 09:50:35;;;;;;;17.25;15.35;;;10.60;94.70;;;;;;5075512;28;20059;-82
2021/04/29 09:53:06;;;;;;;21.30;16.58;;;10.60;94.80;;;;;;5069138;28;20507;-82
2021/04/29 09:55:39;;;;;;;20.98;15.60;;;10.50;94.90;;;;;;5073009;28;20059;-82
2021/04/29 09:58:18;;;;;;;20.08;17.88;;;10.50;94.90;;;;;;5073200;28;20045;-82
2021/04/29 10:00:48;;;;;;;19.30;17.02;;;10.50;94.80;;;;;;5071508;28;20040;-82
2021/04/29 10:03:16;;;;;;;19.08;15.50;;;10.40;94.80;;;;;;5077012;28;20545;-83
2021/04/29 10:05:43;;;;;;;22.00;15.93;;;10.40;95.00;;;;;;5071393;28;20411;-83
2021/04/29 10:08:14;;;;;;;25.77;19.65;;;10.40;95.10;;;;;;5074527;28;20047;-82
2021/04/29 10:10:44;;;;;;;26.17;19.42;;;10.40;95.20;;;;;;5080010;28;20479;-82
2021/04/29 10:13:11;;;;;;;21.98;17.30;;;10.40;95.30;;;;;;5075731;28;20047;-82
2021/04/29 10:15:39;;;;;;;22.50;17.58;;;10.50;95.40;;;;;;5075683;28;20407;-82
2021/04/29 10:18:10;;;;;;;22.63;18.77;;;10.60;95.30;;;;;;5033531;28;20036;-83
2021/04/29 10:20:39;;;;;;;19.73;16.98;;;10.60;95.30;;;;;;5079554;28;20048;-82
2021/04/29 10:23:16;;;;;;;22.48;20.08;;;10.60;95.40;;;;;;5078691;28;20055;-80
2021/04/29 10:25:52;;;;;;;25.50;19.80;;;10.60;95.20;;;;;;5062816;28;20031;-81
2021/04/29 10:28:42;;;;;;;21.15;18.50;;;10.60;95.30;;;;;;5074406;28;20036;-80
2021/04/29 10:31:24;;;;;;;23.75;17.90;;;10.60;95.40;;;;;;5076094;28;20051;-81
2021/04/29 10:34:10;;;;;;;22.60;19.45;;;10.60;95.40;;;;;;5079465;28;20040;-80
2021/04/29 10:36:47;;;;;;;24.15;19.92;;;10.50;95.30;;;;;;5072402;28;20035;-80
2021/04/29 10:39:22;;;;;;;22.40;19.90;;;10.50;95.50;;;;;;5057158;28;20525;-79
2021/04/29 10:42:12;;;;;;;22.08;18.35;;;10.40;95.60;;;;;;5076347;28;20071;-79
2021/04/29 10:44:44;;;;;;;22.65;18.98;;;10.40;95.70;;;;;;5057277;28;20036;-80
2021/04/29 10:47:28;;;;;;;20.02;17.85;;;10.40;95.70;;;;;;5081051;28;20032;-82
2021/04/29 10:50:11;;;;;;;23.30;19.10;;;10.40;95.80;;;;;;5073005;28;20040;-80
2021/04/29 10:52:59;;;;;;;27.88;21.67;;;10.50;95.90;;;;;;5079343;28;20020;-81
2021/04/29 10:55:31;;;;;;;25.30;22.00;;;10.50;95.90;;;;;;5074301;28;20036;-81
2021/04/29 10:57:59;;;;;;;27.33;23.13;;;10.50;95.90;;;;;;5074944;28;20517;-81
2021/04/29 11:00:28;;;;;;;25.00;21.88;;;10.40;95.80;;;;;;5066349;28;20040;-82
2021/04/29 11:03:06;;;;;;;24.48;21.90;;;10.40;96.00;;;;;;5078721;28;20036;-82
2021/04/29 11:05:35;;;;;;;24.75;21.67;;;10.30;96.10;;;;;;5052865;28;20387;-81
2021/04/29 11:08:08;;;;;;;24.00;21.00;;;10.30;96.20;;;;;;5076622;28;20121;-82
2021/04/29 11:10:38;;;;;;;23.10;20.35;;;10.30;96.20;;;;;;5078141;28;20048;-82
2021/04/29 11:13:06;;;;;;;21.48;19.27;;;10.40;96.30;;;;;;5080357;28;20043;-80
2021/04/29 11:15:37;;;;;;;21.13;18.83;;;10.30;96.40;;;;;;5064134;28;20036;-81
2021/04/29 11:18:10;;;;;;;20.33;18.23;;;10.40;96.40;;;;;;5075388;28;20040;-83
2021/04/29 11:20:45;;;;;;;24.95;21.15;;;10.30;96.30;;;;;;5057100;28;20504;-82
2021/04/29 11:23:14;;;;;;;19.88;17.17;;;10.30;96.40;;;;;;5078752;28;20043;-83
2021/04/29 11:25:41;;;;;;;21.85;19.33;;;10.40;96.50;;;;;;5056858;28;20051;-83
2021/04/29 11:28:08;;;;;;;22.80;18.55;;;10.50;96.40;;;;;;5074361;28;20035;-82
2021/04/29 11:30:37;;;;;;;21.02;18.10;;;10.50;96.40;;;;;;5056570;28;20047;-83
2021/04/29 11:33:05;;;;;;;15.35;13.65;;;10.50;96.30;;;;;;5080565;28;20024;-82
2021/04/29 11:35:34;;;;;;;14.38;12.50;;;10.50;96.20;;;;;;5071933;28;20040;-82
2021/04/29 11:38:06;;;;;;;17.83;15.93;;;10.50;96.30;;;;;;5074361;28;20052;-82
2021/04/29 11:40:34;;;;;;;15.23;13.43;;;10.50;96.40;;;;;;5074934;28;20303;-83
2021/04/29 11:43:02;;;;;;;14.98;13.32;;;10.40;96.30;;;;;;5075120;28;20036;-83
2021/04/29 11:45:41;;;;;;;12.73;11.52;;;10.30;96.40;;;;;;5069994;28;20476;-83
2021/04/29 11:48:13;;;;;;;12.98;11.35;;;10.20;96.50;;;;;;5077608;28;20028;-83
2021/04/29 11:50:48;;;;;;;16.20;13.98;;;10.10;96.40;;;;;;5079198;28;20032;-82
2021/04/29 11:53:23;;;;;;;15.10;13.07;;;10.00;96.30;;;;;;5073317;28;20518;-82
2021/04/29 11:56:04;;;;;;;15.23;12.90;;;9.90;96.40;;;;;;5072293;28;20043;-82
2021/04/29 11:58:31;;;;;;;15.38;13.80;;;9.80;96.50;;;;;;5079173;28;20497;-83
2021/04/29 12:00:58;;;;;;;17.10;13.77;;;9.80;96.40;;;;;;5080928;28;20052;-83
2021/04/29 12:03:27;;;;;;;17.23;14.48;;;9.80;96.40;;;;;;5077467;28;20029;-83
2021/04/29 12:05:58;;;;;;;17.52;15.65;;;9.80;96.30;;;;;;5073103;28;20575;-83
2021/04/29 12:08:27;;;;;;;16.88;14.15;;;9.80;96.40;;;;;;5056822;28;20403;-83
2021/04/29 12:11:05;;;;;;;15.18;13.43;;;9.90;96.40;;;;;;5076006;28;20037;-82
2021/04/29 12:13:35;;;;;;;18.48;16.15;;;9.90;96.30;;;;;;5057841;28;20123;-82
2021/04/29 12:16:17;;;;;;;19.15;16.17;;;9.90;96.20;;;;;;5078207;28;20027;-82
2021/04/29 12:18:51;;;;;;;14.18;12.68;;;10.00;96.10;;;;;;5072806;28;20040;-81
2021/04/29 12:21:20;;;;;;;15.98;14.27;;;10.00;95.90;;;;;;5075839;28;20070;-82
2021/04/29 12:23:55;;;;;;;18.48;15.68;;;9.90;95.90;;;;;;5073356;28;20036;-82
2021/04/29 12:26:34;;;;;;;17.23;14.55;;;9.80;95.70;;;;;;5069526;28;20035;-82
2021/04/29 12:29:04;;;;;;;16.48;11.05;;;9.70;95.90;;;;;;5073058;28;20630;-82
2021/04/29 12:31:31;;;;;;;13.05;10.75;;;9.60;95.70;;;;;;5058422;28;20043;-82
2021/04/29 12:34:06;;;;;;;12.90;9.82;;;9.50;95.80;;;;;;5077467;28;20267;-82
2021/04/29 12:36:54;;;;;;;12.98;9.85;;;9.40;95.80;;;;;;5075635;28;20062;-82
2021/04/29 12:39:23;;;;;;;11.65;8.52;;;9.30;95.90;;;;;;5073661;28;20040;-82
2021/04/29 12:42:09;;;;;;;10.70;7.72;;;9.30;95.90;;;;;;5072775;28;20487;-82
2021/04/29 12:44:37;;;;;;;9.48;7.88;;;9.40;95.80;;;;;;5075097;28;20039;-83